Chan Gurney Municipal Airport
KYKN : now visible

Airfield :











YOU CAN JOIN US ON...

 
LOGIN :

Register | Disclaimer

   EN    FR    IT 

 









Legend :    VFR   Marginal VFR   IFR   Intensive IFR   Very Intensive IFR
Visi :
Ceiling :
>= 8 km
>= 3000ft
5 to 8 km
1000 to 3000 ft
1500m to 5 km
500 to 1000 ft
800 to 1500m
200 to 500 ft
< 800m
< 200 ft
Symbols :   Thunderstorms  Fog  Heavy snow  Heavy precipitations  Wind > 20 kt







- Airport Elevation : 1306 ft


KYKN - Chan Gurney Municipal

CURRENT METAR :
  • 192156Z AUTO 34012G18KT 10SM -RA SCT021 BKN034 OVC045 09/07 A2992 RMK AO2 RAB2058 SLP148 P0000 T00890067

EXPIRED METARs :
  • 192103Z AUTO 31009KT 8SM -RA FEW010 BKN018 OVC029 08/07 A2991 RMK AO2 RAB2058 P0000
  • 192056Z AUTO 31013KT 10SM BKN012 BKN022 OVC037 09/07 A2990 RMK AO2 PK WND 30026/2009 RAB00E53 SLP143 P0001 60001 T00890072 53016
  • 192040Z AUTO 31014G20KT 8SM -RA BKN012 BKN017 OVC032 08/07 A2990 RMK AO2 PK WND 30026/2009 RAB00 P0000
  • 191956Z AUTO 31019G24KT 10SM BKN020 BKN027 OVC036 10/06 A2988 RMK AO2 SLP136 T01000056

TAF N/A
KZMP FIR / North America



MET'MAP, your aeronautical weather chart ! - Copyright ORBIFLY December 2007 - Disclaimer

ORBIFLY MET'MAP TEAM :

Programming & Development : Alexandra Zaïnal
Concept & Development : Baudouin d'Aumeries
Co-Development & Prog : Marc-Olivier Méhu
Technical & hardware support : Manuel Goepfert

Contact : metmap@orbifly.com




SOURCES & CREDITS :

   NOAA       Earth
Advisory